Saturday, January 31, 2015, 11:04 PM EST

KDOV, Dover Air Force Base

Location: Dover, DE, United States Lat: 39.133
Local Time: 11:04 PM EST ( 4:04 GMT) Lon: -75.467
Time Zone: US/Eastern Elev: 29 ft

Show me the last for .
Show Decoded

2015-01-31 21:58 METAR KDOV 010258Z AUTO 29002KT 10SM CLR M05/M12 A3027 =
2015-01-31 20:58 METAR KDOV 010158Z AUTO 25004KT 10SM CLR M04/M13 A3028 =
2015-01-31 19:58 METAR KDOV 010058Z AUTO 26005KT 10SM CLR M04/M13 A3028 RMK AO2 SLP257 T10411126
                 $ =
2015-01-31 18:58 METAR KDOV 312358Z AUTO 28007KT 10SM CLR M03/M13 A3027 =
2015-01-31 17:58 METAR KDOV 312258Z AUTO 29012G18KT 10SM CLR M03/M13 A3025 =
2015-01-31 16:58 METAR KDOV 312158Z AUTO 30014G23KT 10SM CLR M02/M14 A3023 =
2015-01-31 15:58 METAR KDOV 312058Z AUTO 29014G21KT 10SM CLR M01/M14 A3022 =
2015-01-31 14:58 METAR KDOV 311958Z AUTO 28013G22KT 10SM CLR M02/M14 A3022 RMK AO2 SLP237
                 T10161144 $ =
2015-01-31 13:58 METAR KDOV 311858Z AUTO 29017KT 10SM CLR M02/M15 A3022 =
2015-01-31 12:58 METAR KDOV 311758Z AUTO 28018G22KT 10SM CLR M03/M15 A3024 =
2015-01-31 11:58 METAR KDOV 311658Z AUTO 29016G21KT 10SM CLR M04/M16 A3027 =
2015-01-31 10:58 METAR KDOV 311558Z AUTO 30020G25KT 10SM CLR M05/M17 A3028 RMK AO2 PK WND
                 32028/40 SLP257 T10471169 $ =
2015-01-31 09:58 METAR KDOV 311458Z AUTO 32016G26KT 10SM CLR M06/M17 A3028 =
2015-01-31 08:58 METAR KDOV 311358Z AUTO 30018G25KT 10SM CLR M07/M17 A3026 RMK AO2 PK WND
                 30028/1258 SLP251 T10721172 $ =
2015-01-31 07:58 METAR KDOV 311258Z AUTO 31016KT 10SM CLR M08/M18 A3025 RMK AO2 PK WND 31026/53
                 SLP247 T10831185 $ =
2015-01-31 06:58 METAR KDOV 311158Z AUTO 30016G21KT 10SM CLR M09/M19 A3022 =
2015-01-31 05:58 METAR KDOV 311058Z AUTO 29015KT 10SM CLR M09/M18 A3021 =
2015-01-31 04:58 METAR KDOV 310958Z AUTO 31016G25KT 10SM CLR M08/M18 A3021 RMK AO2 PK WND
                 30031/29 SLP234 T10851178 $ =
2015-01-31 03:58 METAR KDOV 310858Z AUTO 30012G23KT 10SM CLR M08/M17 A3021 RMK AO2 PK WND
                 31028/18 SLP234 T10831171 50014 $ =
2015-01-31 02:58 METAR KDOV 310758Z AUTO 29021G26KT 10SM CLR M08/M17 A3021 RMK AO2 PK WND
                 30026/46 SLP234 T10791167 $ =
2015-01-31 01:58 METAR KDOV 310658Z AUTO 32017G26KT 10SM CLR M07/M16 A3020 =
2015-01-31 00:58 METAR KDOV 310558Z AUTO 29019G24KT 10SM CLR M06/M14 A3017 RMK AO2 PK WND
                 31031/10 SLP220 T10641142 11012 21064 52012 $ =
2015-01-30 23:58 METAR KDOV 310458Z AUTO 31020G29KT 10SM CLR M06/M14 A3015 RMK AO2 PK WND
                 31032/57 SLP213 T10571143 400601057 $ =

Support USWX by starting your Amazon purchase here.